Nearby METAR Reports

 

EGHI - Southampton Wx C, Hampshire, United Kingdom
Distance from station: SE 2mi, 3km
Updated: 22/11/2017 21:50
NOT Current
Rain, Mostly cloudy
Rain, Mostly cloudy
 Wind from SSW
Wind: SSW 26 mph , 43 km/h, Gust: 46 mph , 74 km/h
Temperature: 14°C
Dew Point: 10°C
Humidity: 77%
Barometer: 990 hPa
Summary: Rain
Clouds: Mostly cloudy
Visibility: 5 miles , 8 km
Cloud details: Few Clouds 732 m
Partly cloudy 1097 m
Mostly cloudy 1280 m
2017/11/22 21:50 EGHI 222150Z 20023G40KT 160V230 8000 RA FEW024 SCT036 BKN042 14/10 Q0990
EGVP - Middle Wallop, Hampshire, United Kingdom
Distance from station: NW 14mi, 23km
Updated: 23/11/2017 00:50
Mostly cloudy
Mostly cloudy
 Wind from SW
Wind: SW 20 mph , 31 km/h
Temperature: 11°C
Dew Point: 10°C
Humidity: 94%
Barometer: 987 hPa
Clouds: Mostly cloudy
Visibility: 2 miles , 3 km
Cloud details: Few Clouds 366 m
Mostly cloudy 1524 m
2017/11/23 00:50 EGVP 230050Z AUTO 22017KT 2700 // FEW012/// BKN050/// 11/10 Q0987
 
EGDM - Boscombe Down, Dorset, United Kingdom
Distance from station: NW 21mi, 34km
Updated: 23/11/2017 00:50
Rain, Mostly cloudy
Rain, Mostly cloudy
 Wind from SSW
Wind: SSW 18 mph , 30 km/h
Temperature: 11°C
Dew Point: 10°C
Humidity: 94%
Barometer: 986 hPa
Summary: Rain
Clouds: Mostly cloudy
Visibility: 6 miles , 10 km
Cloud details: Mostly cloudy 1524 m
2017/11/23 00:50 EGDM 230050Z AUTO 21016KT 9999 RA BKN050/// 11/10 Q0986
EGHH - Bournemouth Airp, Dorset, United Kingdom
Distance from station: WSW 23mi, 38km
Updated: 22/11/2017 22:50
NOT Current
Mostly cloudy
Mostly cloudy
 Wind from SSW
Wind: SSW 25 mph , 41 km/h, Gust: 38 mph , 61 km/h
Temperature: 15°C
Dew Point: 11°C
Humidity: 77%
Barometer: 988 hPa
Clouds: Mostly cloudy
Visibility: 6 miles , 10 km
Cloud details: Mostly cloudy 914 m
2017/11/22 22:50 EGHH 222250Z 21022G33KT 9999 BKN030 15/11 Q0988 RERA
 
EGVO - Odiham Raf, Hampshire, United Kingdom
Distance from station: NE 26mi, 42km
Updated: 23/11/2017 00:50
Mostly cloudy
Mostly cloudy
 Wind from SSW
Wind: SSW 33 mph , 54 km/h, Gust: 53 mph , 85 km/h
Temperature: 14°C
Dew Point: 10°C
Humidity: 77%
Barometer: 987 hPa
Clouds: Mostly cloudy
Visibility: 6 miles , 10 km
Cloud details: Partly cloudy 701 m
Mostly cloudy 1829 m
2017/11/23 00:50 EGVO 230050Z AUTO 20029G46KT 9999 SCT023/// BKN060/// 14/10 Q0987 RERA
EGLF - Farnborough, Hampshire, United Kingdom
Distance from station: NE 34mi, 56km
Updated: 22/11/2017 21:20
NOT Current
Light rain, Mostly cloudy
Light rain, Mostly cloudy
 Wind from SSW
Wind: SSW 24 mph , 39 km/h, Gust: 36 mph , 57 km/h
Temperature: 13°C
Dew Point: 11°C
Humidity: 88%
Barometer: 990 hPa
Summary: Light rain
Clouds: Mostly cloudy
Visibility: 6 miles , 10 km
Cloud details: Mostly cloudy 701 m
2017/11/22 21:20 EGLF 222120Z 20021G31KT 160V220 9999 -RA BKN023 13/11 Q0990
 
EGDL - Lyneham Raf, Wiltshire, United Kingdom
Distance from station: NW 45mi, 72km
Updated: 21/06/2013 08:50
NOT Current
Mostly cloudy
Mostly cloudy
 Wind from WSW
Wind: WSW 9 mph , 15 km/h
Temperature: 14°C
Dew Point: 14°C
Humidity: 100%
Barometer: 1010 hPa
Clouds: Mostly cloudy
Cloud details: Mostly cloudy 61 m
Mostly cloudy 427 m
2013/06/21 07:50 EGDL 210750Z AUTO 25008KT //// // BKN002/// BKN014/// 14/14 Q1010
EGUB - Benson Raf, Oxfordshire, United Kingdom
Distance from station: NNE 47mi, 76km
Updated: 23/11/2017 00:50
Partly cloudy
Partly cloudy
 Wind from SSW
Wind: SSW 26 mph , 43 km/h, Gust: 43 mph , 69 km/h
Temperature: 13°C
Dew Point: 12°C
Humidity: 94%
Barometer: 986 hPa
Clouds: Partly cloudy
Visibility: 2 miles , 3 km
Cloud details: Mostly cloudy 518 m
Partly cloudy 1006 m
2017/11/23 00:50 EGUB 230050Z AUTO 20023G37KT 3300 // BKN017/// SCT033/// 13/12 Q0986
 
EGKA - Shoreham-By-Sea, West Sussex, United Kingdom
Distance from station: E 48mi, 77km
Updated: 22/11/2017 18:20
NOT Current
Clear
Clear
 Wind from S
Wind: S 22 mph , 35 km/h, Gust: 33 mph , 54 km/h
Temperature: 14°C
Dew Point: 9°C
Humidity: 72%
Barometer: 994 hPa
Summary: Clear
Visibility: greater than 7 miles , 10 km
2017/11/22 18:20 EGKA 221820Z 19019G29KT CAVOK 14/09 Q0994
EGVA - Fairford Raf, Gloucestershire, United Kingdom
Distance from station: NNW 51mi, 82km
Updated: 23/11/2017 01:28
Light rain, Mostly cloudy
Light rain, Mostly cloudy
 Wind from SSW
Wind: SSW 14 mph , 22 km/h, Gust: 22 mph , 35 km/h
Temperature: 12°C
Dew Point: 10°C
Humidity: 88%
Barometer: 984.4 hPa
Summary: Light rain
Clouds: Mostly cloudy
Visibility: 6 miles , 10 km
Cloud details: Mostly cloudy 457 m
Mostly cloudy 1219 m
Mostly cloudy 1494 m
2017/11/23 01:28 EGVA 230128Z AUTO 21012G19KT 9999 -RA BKN015 BKN040 BKN049 12/10 A2907 RMK AO2 RAE17DZB17E18RAB23 CIG 015V048 BKN015 V SCT SLP847 $
 
EGDY - Yeovilton (navy), Somerset, United Kingdom
Distance from station: W 54mi, 87km
Updated: 23/11/2017 00:50
Rain, Mostly cloudy
Rain, Mostly cloudy
 Wind from SSW
Wind: SSW 12 mph , 19 km/h
Temperature: 12°C
Dew Point: 11°C
Humidity: 94%
Barometer: 986 hPa
Summary: Rain
Clouds: Mostly cloudy
Visibility: 6 miles , 9 km
Cloud details: Few Clouds 732 m
Mostly cloudy 1524 m
2017/11/23 00:50 EGDY 230050Z AUTO 21010KT 9000 RA FEW024/// BKN050/// 12/11 Q0986
EGKK - London/Gatwick A, West Sussex, United Kingdom
Distance from station: ENE 54mi, 87km
Updated: 23/11/2017 01:20
Mostly cloudy
Mostly cloudy
 Wind from S
Wind: S 17 mph , 28 km/h
Temperature: 14°C
Dew Point: 10°C
Humidity: 77%
Barometer: 988 hPa
Clouds: Mostly cloudy
Visibility: 6 miles , 10 km
Cloud details: Partly cloudy 945 m
Mostly cloudy 1097 m
2017/11/23 01:20 EGKK 230120Z 19015KT 9999 SCT031 BKN036 14/10 Q0988
 
EGLL - London/Heathrow, Middlesex, United Kingdom
Distance from station: NE 54mi, 87km
Updated: 23/11/2017 01:20
Light rain, Thunderstorm
Light rain, Thunderstorm
 Wind from SSW
Wind: SSW 25 mph , 41 km/h
Temperature: 15°C
Dew Point: 9°C
Humidity: 68%
Barometer: 987 hPa
Summary: Light rain
Clouds: Thunderstorm
Visibility: 6 miles , 10 km
Cloud details: Mostly cloudy 945 m
2017/11/23 01:20 EGLL 230120Z AUTO 20022KT 9999 -RA BKN031/// //////CB 15/09 Q0987 TEMPO 20025G35KT RA
EGVN - Brize Norton Raf, Oxfordshire, United Kingdom
Distance from station: N 56mi, 90km
Updated: 23/11/2017 00:50
Light rain, Mostly cloudy
Light rain, Mostly cloudy
 Wind from SSW
Wind: SSW 15 mph , 24 km/h, Gust: 28 mph , 44 km/h
Temperature: 12°C
Dew Point: 10°C
Humidity: 88%
Barometer: 985 hPa
Summary: Light rain
Clouds: Mostly cloudy
Visibility: 6 miles , 10 km
Cloud details: Few Clouds 610 m
Mostly cloudy 823 m
Mostly cloudy 1524 m
2017/11/23 00:50 EGVN 230050Z 21013G24KT 9999 -RA FEW020 BKN027 BKN050 12/10 Q0985 RERA TEMPO SCT020
 
EGWU - Northolt Raf, Middlesex, United Kingdom
Distance from station: NE 58mi, 93km
Updated: 23/11/2017 00:50
Mostly cloudy
Mostly cloudy
 Wind from SSW
Wind: SSW 24 mph , 39 km/h, Gust: 40 mph , 65 km/h
Temperature: 15°C
Dew Point: 10°C
Humidity: 72%
Barometer: 987 hPa
Clouds: Mostly cloudy
Visibility: 6 miles , 10 km
Cloud details: Partly cloudy 792 m
Mostly cloudy 1524 m
2017/11/23 00:50 EGWU 230050Z AUTO 21021G35KT 9999 // SCT026/// BKN050/// 15/10 Q0987
EGGD - Bristol/Lulsgate, Somerset, United Kingdom
Distance from station: WNW 64mi, 103km
Updated: 23/11/2017 01:20
Mostly cloudy
Mostly cloudy
 Wind from SSW
Wind: SSW 10 mph , 17 km/h
Temperature: 11°C
Dew Point: 11°C
Humidity: 100%
Barometer: 985 hPa
Clouds: Mostly cloudy
Visibility: 6 miles , 10 km
Cloud details: Mostly cloudy 274 m
Mostly cloudy 396 m
2017/11/23 01:20 EGGD 230120Z AUTO 21009KT 9999 BKN009 BKN013 11/11 Q0985
 
EGKB - Biggin Hill, Kent,United Kingdom
Distance from station: ENE 65mi, 105km
Updated: 22/11/2017 22:20
NOT Current
Light rain, Showers, Partly cloudy
Light rain, Showers, Partly cloudy
 Wind from SSW
Wind: SSW 30 mph , 48 km/h, Gust: 45 mph , 72 km/h
Temperature: 13°C
Dew Point: 11°C
Humidity: 88%
Barometer: 991 hPa
Summary: Light rain, Showers
Clouds: Partly cloudy
Visibility: 6 miles , 10 km
Cloud details: Partly cloudy 610 m
2017/11/22 22:20 EGKB 222220Z 20026G39KT 9999 -SHRA SCT020 13/11 Q0991
EGLC - London City Airp, Greater London, United Kingdom
Distance from station: ENE 72mi, 116km
Updated: 23/11/2017 01:20
Light rain, Thunderstorm
Light rain, Thunderstorm
 Wind from SSW
Wind: SSW 23 mph , 37 km/h, Gust: 39 mph , 63 km/h
Temperature: 15°C
Dew Point: 10°C
Humidity: 72%
Barometer: 988 hPa
Summary: Light rain
Clouds: Thunderstorm
Visibility: 6 miles , 10 km
Cloud details: Partly cloudy 975 m
Mostly cloudy 1250 m
2017/11/23 01:20 EGLC 230120Z AUTO 20020G34KT 160V220 9999 -RA SCT032/// BKN041/// //////TCU 15/10 Q0988
 
EGBJ - Staverton, Northamptonshire, United Kingdom
Distance from station: NNW 73mi, 117km
Updated: 22/11/2017 19:20
NOT Current
Light rain, Mostly cloudy
Light rain, Mostly cloudy
 Wind from SSW
Wind: SSW 23 mph , 37 km/h, Gust: 37 mph , 59 km/h
Temperature: 14°C
Dew Point: 12°C
Humidity: 88%
Barometer: 986 hPa
Summary: Light rain
Clouds: Mostly cloudy
Visibility: 6 miles , 10 km
Cloud details: Few Clouds 366 m
Mostly cloudy 549 m
2017/11/22 19:20 EGBJ 221920Z 20020G32KT 9999 -RA FEW012 BKN018 14/12 Q0986
EGGW - Luton Airport, Bedfordshire, United Kingdom
Distance from station: NE 76mi, 122km
Updated: 23/11/2017 01:20
Light rain, Thunderstorm
Light rain, Thunderstorm
 Wind from SSW
Wind: SSW 26 mph , 43 km/h, Gust: 41 mph , 67 km/h
Temperature: 13°C
Dew Point: 10°C
Humidity: 82%
Barometer: 985 hPa
Summary: Light rain
Clouds: Thunderstorm
Visibility: 6 miles , 10 km
Cloud details: Mostly cloudy 701 m
Overcast 1006 m
2017/11/23 01:20 EGGW 230120Z AUTO 20023G36KT 9999 -RA BKN023/// OVC033/// //////CB 13/10 Q0985